createdAt,value
2018-12-04T00:00:40.779Z,52.27
2018-12-04T00:01:41.003Z,52.3
2018-12-04T00:02:40.868Z,52.3
2018-12-04T00:03:41.160Z,52.28
2018-12-04T00:04:40.729Z,52.3
2018-12-04T00:05:40.893Z,52.33
2018-12-04T00:06:40.801Z,52.32
2018-12-04T00:07:40.927Z,52.3
2018-12-04T00:08:41.021Z,52.32
2018-12-04T00:09:41.903Z,52.34
2018-12-04T00:10:41.014Z,52.31
2018-12-04T00:11:40.847Z,52.34
2018-12-04T00:12:41.083Z,52.25
2018-12-04T00:13:40.822Z,52.3
2018-12-04T00:14:40.856Z,52.32
2018-12-04T00:15:40.729Z,52.31
2018-12-04T00:16:41.171Z,52.32
2018-12-04T00:17:41.078Z,52.23
2018-12-04T00:18:41.164Z,52.24
2018-12-04T00:19:41.234Z,52.26
2018-12-04T00:20:41.181Z,52.33
2018-12-04T00:21:41.080Z,52.33
2018-12-04T00:22:40.902Z,52.28
2018-12-04T00:23:40.682Z,52.31
2018-12-04T00:24:40.757Z,52.31
2018-12-04T00:25:40.821Z,52.33
2018-12-04T00:26:41.163Z,52.28
2018-12-04T00:27:40.899Z,52.28
2018-12-04T00:28:41.030Z,52.27
2018-12-04T00:29:41.199Z,52.32
2018-12-04T00:30:41.829Z,52.33
2018-12-04T00:31:41.093Z,52.33
2018-12-04T00:32:40.915Z,52.35
2018-12-04T00:33:41.025Z,52.32
2018-12-04T00:34:41.222Z,52.31
2018-12-04T00:35:40.898Z,52.36
2018-12-04T00:36:40.803Z,52.29
2018-12-04T00:37:41.221Z,52.32
2018-12-04T00:38:40.781Z,52.31
2018-12-04T00:39:41.159Z,52.31
2018-12-04T00:40:41.271Z,52.28
2018-12-04T00:41:40.909Z,52.29
2018-12-04T00:42:40.762Z,52.34
2018-12-04T00:43:40.785Z,52.26
2018-12-04T00:44:40.961Z,52.34
2018-12-04T00:45:41.124Z,52.34
2018-12-04T00:46:41.171Z,52.33
2018-12-04T00:47:41.433Z,52.38
2018-12-04T00:48:41.174Z,52.29
2018-12-04T00:49:40.812Z,52.32
2018-12-04T00:50:40.827Z,52.31
2018-12-04T00:51:41.097Z,52.32
2018-12-04T00:52:40.950Z,52.4
2018-12-04T00:53:41.205Z,52.33
2018-12-04T00:54:41.088Z,52.33
2018-12-04T00:55:41.177Z,52.32
2018-12-04T00:56:40.796Z,52.34
2018-12-04T00:57:41.282Z,52.33
2018-12-04T00:58:41.199Z,52.38
2018-12-04T00:59:40.713Z,52.31
2018-12-04T01:00:41.566Z,52.33
2018-12-04T01:01:40.822Z,52.33
2018-12-04T01:02:41.248Z,52.35
2018-12-04T01:03:40.794Z,52.36
2018-12-04T01:04:41.135Z,52.36
2018-12-04T01:05:40.825Z,52.36
2018-12-04T01:06:41.178Z,52.44
2018-12-04T01:07:41.484Z,52.38
2018-12-04T01:08:41.204Z,52.37
2018-12-04T01:09:40.858Z,52.32
2018-12-04T01:10:40.827Z,52.37
2018-12-04T01:11:40.977Z,52.38
2018-12-04T01:12:40.981Z,52.4
2018-12-04T01:13:41.438Z,52.38
2018-12-04T01:14:40.999Z,52.39
2018-12-04T01:15:41.030Z,52.39
2018-12-04T01:16:40.835Z,52.42
2018-12-04T01:17:41.153Z,52.4
2018-12-04T01:18:41.510Z,52.35
2018-12-04T01:19:41.180Z,52.38
2018-12-04T01:20:40.908Z,52.27
2018-12-04T01:21:41.170Z,52.35
2018-12-04T01:22:40.870Z,52.34
2018-12-04T01:23:41.009Z,52.38
2018-12-04T01:24:41.481Z,52.39
2018-12-04T01:25:41.205Z,52.39
2018-12-04T01:26:40.922Z,52.38
2018-12-04T01:27:41.111Z,52.37
2018-12-04T01:28:40.934Z,52.37
2018-12-04T01:29:41.228Z,52.38
2018-12-04T01:30:41.104Z,52.36
2018-12-04T01:31:41.652Z,52.37
2018-12-04T01:32:40.782Z,52.37
2018-12-04T01:33:41.057Z,52.37
2018-12-04T01:34:41.093Z,52.34
2018-12-04T01:35:40.901Z,52.39
2018-12-04T01:36:40.971Z,52.34
2018-12-04T01:37:40.763Z,52.38
2018-12-04T01:38:40.978Z,52.36
2018-12-04T01:39:40.779Z,52.35
2018-12-04T01:40:41.200Z,52.45
2018-12-04T01:41:40.733Z,52.42
2018-12-04T01:42:40.855Z,52.36
2018-12-04T01:43:40.923Z,52.33
2018-12-04T01:44:40.761Z,52.37
2018-12-04T01:45:40.763Z,52.4
2018-12-04T01:46:40.853Z,52.38
2018-12-04T01:47:40.937Z,52.43
2018-12-04T01:48:40.793Z,52.41
2018-12-04T01:49:40.874Z,52.38
2018-12-04T01:50:40.773Z,52.39
2018-12-04T01:51:40.915Z,52.37
2018-12-04T01:52:41.050Z,52.35
2018-12-04T01:53:40.781Z,52.4
2018-12-04T01:54:40.882Z,52.38
2018-12-04T01:55:40.726Z,52.33
2018-12-04T01:56:40.947Z,52.34
2018-12-04T01:57:41.196Z,52.41
2018-12-04T01:58:40.950Z,52.37
2018-12-04T01:59:41.025Z,52.45
2018-12-04T02:00:41.130Z,52.37
2018-12-04T02:01:40.889Z,52.37
2018-12-04T02:02:40.765Z,52.39
2018-12-04T02:03:40.998Z,52.38
2018-12-04T02:04:40.755Z,52.37
2018-12-04T02:05:40.854Z,52.37
2018-12-04T02:06:41.058Z,52.36
2018-12-04T02:07:40.788Z,52.38
2018-12-04T02:08:41.297Z,52.41
2018-12-04T02:09:40.979Z,52.37
2018-12-04T02:10:40.661Z,52.42
2018-12-04T02:11:41.018Z,52.41
2018-12-04T02:12:41.005Z,52.35
2018-12-04T02:13:41.084Z,52.4
2018-12-04T02:14:41.135Z,52.33
2018-12-04T02:15:41.127Z,52.45
2018-12-04T02:16:41.249Z,52.39
2018-12-04T02:17:41.183Z,52.39
2018-12-04T02:18:40.948Z,52.36
2018-12-04T02:19:40.870Z,52.34
2018-12-04T02:20:40.879Z,52.39
2018-12-04T02:21:41.386Z,52.37
2018-12-04T02:22:41.012Z,52.45
2018-12-04T02:23:40.862Z,52.41
2018-12-04T02:24:41.123Z,52.39
2018-12-04T02:25:41.337Z,52.45
2018-12-04T02:26:41.649Z,52.4
2018-12-04T02:27:40.742Z,52.42
2018-12-04T02:28:40.910Z,52.34
2018-12-04T02:29:41.571Z,52.39
2018-12-04T02:30:40.978Z,52.39
2018-12-04T02:31:40.755Z,52.45
2018-12-04T02:32:41.452Z,52.38
2018-12-04T02:33:40.774Z,52.39
2018-12-04T02:34:41.083Z,52.41
2018-12-04T02:35:41.036Z,52.38
2018-12-04T02:36:41.342Z,52.35
2018-12-04T02:37:40.926Z,52.38
2018-12-04T02:38:42.016Z,52.39
2018-12-04T02:39:41.018Z,52.39
2018-12-04T02:40:41.054Z,52.43
2018-12-04T02:41:41.024Z,52.4
2018-12-04T02:42:40.950Z,52.43
2018-12-04T02:43:40.903Z,52.37
2018-12-04T02:44:40.675Z,52.42
2018-12-04T02:45:41.053Z,52.38
2018-12-04T02:46:40.633Z,52.43
2018-12-04T02:47:40.796Z,52.41
2018-12-04T02:48:40.870Z,52.4
2018-12-04T02:49:41.087Z,52.39
2018-12-04T02:50:41.108Z,52.42
2018-12-04T02:51:41.084Z,52.46
2018-12-04T02:52:40.969Z,52.36
2018-12-04T02:53:40.785Z,52.39
2018-12-04T02:54:41.270Z,52.39
2018-12-04T02:55:40.858Z,52.36
2018-12-04T02:56:40.806Z,52.32
2018-12-04T02:57:41.947Z,52.4
2018-12-04T02:58:40.874Z,52.39
2018-12-04T02:59:40.827Z,52.43
2018-12-04T03:00:40.871Z,52.39
2018-12-04T03:01:40.985Z,52.38
2018-12-04T03:02:40.890Z,52.41
2018-12-04T03:03:40.760Z,52.38
2018-12-04T03:04:40.783Z,52.46
2018-12-04T03:05:40.676Z,52.37
2018-12-04T03:06:40.803Z,52.34
2018-12-04T03:07:41.154Z,52.38
2018-12-04T03:08:40.976Z,52.4
2018-12-04T03:09:41.030Z,52.36
2018-12-04T03:10:40.886Z,52.4
2018-12-04T03:11:40.728Z,52.42
2018-12-04T03:12:40.923Z,52.4
2018-12-04T03:13:40.989Z,52.38
2018-12-04T03:14:40.958Z,52.39
2018-12-04T03:15:40.881Z,52.41
2018-12-04T03:16:40.827Z,52.39
2018-12-04T03:17:40.864Z,52.36
2018-12-04T03:18:40.967Z,52.39
2018-12-04T03:19:41.023Z,52.4
2018-12-04T03:20:41.082Z,52.39
2018-12-04T03:21:40.788Z,52.38
2018-12-04T03:22:40.823Z,52.35
2018-12-04T03:23:40.799Z,52.42
2018-12-04T03:24:40.750Z,52.34
2018-12-04T03:25:40.734Z,52.44
2018-12-04T03:26:40.755Z,52.54
2018-12-04T03:27:40.926Z,52.47
2018-12-04T03:28:40.829Z,52.45
2018-12-04T03:29:40.804Z,52.43
2018-12-04T03:30:40.946Z,52.42
2018-12-04T03:31:40.774Z,52.43
2018-12-04T03:32:40.764Z,52.47
2018-12-04T03:33:40.905Z,52.4
2018-12-04T03:34:40.763Z,52.44
2018-12-04T03:35:41.109Z,52.48
2018-12-04T03:36:41.190Z,52.38
2018-12-04T03:37:40.855Z,52.49
2018-12-04T03:38:40.813Z,52.48
2018-12-04T03:39:40.838Z,52.37
2018-12-04T03:40:40.965Z,52.48
2018-12-04T03:41:41.301Z,52.42
2018-12-04T03:42:40.949Z,52.47
2018-12-04T03:43:40.843Z,52.37
2018-12-04T03:44:40.737Z,52.39
2018-12-04T03:45:40.751Z,52.4
2018-12-04T03:46:40.916Z,52.46
2018-12-04T03:47:40.877Z,52.45
2018-12-04T03:48:40.876Z,52.42
2018-12-04T03:49:40.815Z,52.5
2018-12-04T03:50:40.921Z,52.51
2018-12-04T03:51:40.805Z,52.5
2018-12-04T03:52:41.084Z,52.48
2018-12-04T03:53:40.670Z,52.39
2018-12-04T03:54:41.795Z,52.42
2018-12-04T03:55:41.026Z,52.36
2018-12-04T03:56:41.094Z,52.43
2018-12-04T03:57:40.816Z,52.48
2018-12-04T03:58:41.203Z,52.46
2018-12-04T03:59:40.916Z,52.45
2018-12-04T04:00:41.206Z,52.46
2018-12-04T04:01:40.887Z,52.45
2018-12-04T04:02:40.746Z,52.5
2018-12-04T04:03:40.779Z,52.45
2018-12-04T04:04:41.044Z,52.4
2018-12-04T04:05:40.819Z,52.43
2018-12-04T04:06:41.713Z,52.51
2018-12-04T04:07:41.064Z,52.45
2018-12-04T04:08:40.832Z,52.44
2018-12-04T04:09:40.734Z,52.48
2018-12-04T04:10:40.806Z,52.51
2018-12-04T04:11:41.252Z,52.53
2018-12-04T04:12:41.681Z,52.51
2018-12-04T04:13:40.956Z,52.51
2018-12-04T04:14:40.957Z,52.48
2018-12-04T04:15:41.388Z,52.51
2018-12-04T04:16:40.891Z,52.47
2018-12-04T04:17:40.565Z,52.49
2018-12-04T04:18:41.610Z,52.51
2018-12-04T04:19:41.247Z,52.44
2018-12-04T04:20:40.784Z,52.49
2018-12-04T04:21:41.003Z,52.47
2018-12-04T04:22:40.917Z,52.44
2018-12-04T04:23:40.933Z,52.39
2018-12-04T04:24:40.938Z,52.45
2018-12-04T04:25:40.787Z,52.46
2018-12-04T04:26:40.779Z,52.48
2018-12-04T04:27:40.981Z,52.44
2018-12-04T04:28:41.064Z,52.48
2018-12-04T04:29:40.667Z,52.43
2018-12-04T04:30:41.089Z,52.49
2018-12-04T04:31:41.006Z,52.45
2018-12-04T04:32:40.727Z,52.48
2018-12-04T04:33:40.800Z,52.45
2018-12-04T04:34:40.708Z,52.44
2018-12-04T04:35:40.836Z,52.49
2018-12-04T04:36:40.677Z,52.46
2018-12-04T04:37:40.872Z,52.38
2018-12-04T04:38:40.916Z,52.46
2018-12-04T04:39:40.947Z,52.46
2018-12-04T04:40:41.196Z,52.45
2018-12-04T04:41:40.950Z,52.46
2018-12-04T04:42:40.901Z,52.48
2018-12-04T04:43:40.750Z,52.5
2018-12-04T04:44:40.623Z,52.46
2018-12-04T04:45:41.033Z,52.45
2018-12-04T04:46:40.813Z,52.41
2018-12-04T04:47:40.839Z,52.36
2018-12-04T04:48:40.829Z,52.33
2018-12-04T04:49:40.935Z,52.28
2018-12-04T04:50:40.816Z,52.31
2018-12-04T04:51:40.801Z,52.2
2018-12-04T04:52:40.667Z,52.22
2018-12-04T04:53:40.554Z,52.22
2018-12-04T04:54:40.765Z,52.21
2018-12-04T04:55:41.061Z,52.17
2018-12-04T04:56:40.525Z,52.12
2018-12-04T04:57:40.854Z,52.08
2018-12-04T04:58:40.888Z,52.05
2018-12-04T04:59:40.932Z,52
2018-12-04T05:00:40.830Z,51.98
2018-12-04T05:01:40.762Z,52
2018-12-04T05:02:40.733Z,51.95
2018-12-04T05:03:40.727Z,51.93
2018-12-04T05:04:40.808Z,51.87
2018-12-04T05:05:40.744Z,51.92
2018-12-04T05:06:40.771Z,51.86
2018-12-04T05:07:41.043Z,51.87
2018-12-04T05:08:40.959Z,51.86
2018-12-04T05:09:40.749Z,51.82
2018-12-04T05:10:40.775Z,51.84
2018-12-04T05:11:40.834Z,51.81
2018-12-04T05:12:41.121Z,51.81
2018-12-04T05:13:40.699Z,51.84
2018-12-04T05:14:40.931Z,51.85
2018-12-04T05:15:40.991Z,51.86
2018-12-04T05:16:41.003Z,51.88
2018-12-04T05:17:40.649Z,51.82
2018-12-04T05:18:40.858Z,51.78
2018-12-04T05:19:41.052Z,51.77
2018-12-04T05:20:41.144Z,51.82
2018-12-04T05:21:40.905Z,51.78
2018-12-04T05:22:40.887Z,51.83
2018-12-04T05:23:41.164Z,51.78
2018-12-04T05:24:40.768Z,51.83
2018-12-04T05:25:41.007Z,51.77
2018-12-04T05:26:40.946Z,51.79
2018-12-04T05:27:41.117Z,51.8
2018-12-04T05:28:40.993Z,51.83
2018-12-04T05:29:40.884Z,51.85
2018-12-04T05:30:40.942Z,51.78
2018-12-04T05:31:41.063Z,51.88
2018-12-04T05:32:40.846Z,51.91
2018-12-04T05:33:40.734Z,51.91
2018-12-04T05:34:40.973Z,51.84
2018-12-04T05:35:41.202Z,51.86
2018-12-04T05:36:40.817Z,51.91
2018-12-04T05:37:41.124Z,51.98
2018-12-04T05:38:40.800Z,51.85
2018-12-04T05:39:41.063Z,51.83
2018-12-04T05:40:40.658Z,51.84
2018-12-04T05:41:41.028Z,51.91
2018-12-04T05:42:41.088Z,51.93
2018-12-04T05:43:41.199Z,51.89
2018-12-04T05:44:40.694Z,51.9
2018-12-04T05:45:40.998Z,51.9
2018-12-04T05:46:40.575Z,51.86
2018-12-04T05:47:40.581Z,51.86
2018-12-04T05:48:40.800Z,51.83
2018-12-04T05:49:40.889Z,51.81
2018-12-04T05:50:40.939Z,51.85
2018-12-04T05:51:41.170Z,51.84
2018-12-04T05:52:40.850Z,51.85
2018-12-04T05:53:40.765Z,51.85
2018-12-04T05:54:41.005Z,51.83
2018-12-04T05:55:40.993Z,51.84
2018-12-04T05:56:40.569Z,51.83
2018-12-04T05:57:40.914Z,51.74
2018-12-04T05:58:41.291Z,51.82
2018-12-04T05:59:40.760Z,51.82
2018-12-04T06:00:40.918Z,51.74
2018-12-04T06:01:41.181Z,51.79
2018-12-04T06:02:40.774Z,51.81
2018-12-04T06:03:41.127Z,51.74
2018-12-04T06:04:40.832Z,51.81
2018-12-04T06:05:40.857Z,51.7
2018-12-04T06:06:40.890Z,51.79
2018-12-04T06:07:40.644Z,51.74
2018-12-04T06:08:40.804Z,51.79
2018-12-04T06:09:41.224Z,51.73
2018-12-04T06:10:40.735Z,51.69
2018-12-04T06:11:40.893Z,51.69
2018-12-04T06:12:41.029Z,51.76
2018-12-04T06:13:40.890Z,51.65
2018-12-04T06:14:40.650Z,51.67
2018-12-04T06:15:41.013Z,51.6
2018-12-04T06:16:41.219Z,51.68
2018-12-04T06:17:41.243Z,51.7
2018-12-04T06:18:41.077Z,51.71
2018-12-04T06:19:40.749Z,51.68
2018-12-04T06:20:40.611Z,51.63
2018-12-04T06:21:40.722Z,51.63
2018-12-04T06:22:40.872Z,51.69
2018-12-04T06:23:41.174Z,51.69
2018-12-04T06:24:41.073Z,51.6
2018-12-04T06:25:40.707Z,51.59
2018-12-04T06:26:41.064Z,51.55
2018-12-04T06:27:40.799Z,51.57
2018-12-04T06:28:40.699Z,51.7
2018-12-04T06:29:40.737Z,51.62
2018-12-04T06:30:40.817Z,51.52
2018-12-04T06:31:40.852Z,51.52
2018-12-04T06:32:40.613Z,51.52
2018-12-04T06:33:40.574Z,51.68
2018-12-04T06:34:40.868Z,51.55
2018-12-04T06:35:40.774Z,51.68
2018-12-04T06:36:40.857Z,51.55
2018-12-04T06:37:40.838Z,51.55
2018-12-04T06:38:40.715Z,51.56
2018-12-04T06:39:40.736Z,51.61
2018-12-04T06:40:40.800Z,51.54
2018-12-04T06:41:40.797Z,51.53
2018-12-04T06:42:40.810Z,51.58
2018-12-04T06:43:40.780Z,51.54
2018-12-04T06:44:40.727Z,51.58
2018-12-04T06:45:40.745Z,51.53
2018-12-04T06:46:40.844Z,51.56
2018-12-04T06:47:40.782Z,51.59
2018-12-04T06:48:40.937Z,51.54
2018-12-04T06:49:40.748Z,51.6
2018-12-04T06:50:41.078Z,51.54
2018-12-04T06:51:40.753Z,51.58
2018-12-04T06:52:41.081Z,51.58
2018-12-04T06:53:41.165Z,51.55
2018-12-04T06:54:40.799Z,51.55
2018-12-04T06:55:41.148Z,51.59
2018-12-04T06:56:40.732Z,51.57
2018-12-04T06:57:41.103Z,51.55
2018-12-04T06:58:41.025Z,51.57
2018-12-04T06:59:40.465Z,51.56
2018-12-04T07:00:40.851Z,51.59
2018-12-04T07:01:41.012Z,51.58
2018-12-04T07:02:40.857Z,51.59
2018-12-04T07:03:41.049Z,51.63
2018-12-04T07:04:40.855Z,51.61
2018-12-04T07:05:40.943Z,51.64
2018-12-04T07:06:40.836Z,51.64
2018-12-04T07:07:40.788Z,51.64
2018-12-04T07:08:41.019Z,51.63
2018-12-04T07:09:40.785Z,51.59
2018-12-04T07:10:40.731Z,51.62
2018-12-04T07:11:40.540Z,51.64
2018-12-04T07:12:41.114Z,51.57
2018-12-04T07:13:41.343Z,51.59
2018-12-04T07:14:40.940Z,51.6
2018-12-04T07:15:40.738Z,51.61
2018-12-04T07:16:40.628Z,51.57
2018-12-04T07:17:41.270Z,51.65
2018-12-04T07:18:40.860Z,51.63
2018-12-04T07:19:40.691Z,51.64
2018-12-04T07:20:41.469Z,51.62
2018-12-04T07:21:41.545Z,51.61
2018-12-04T07:22:40.958Z,51.58
2018-12-04T07:23:41.189Z,51.67
2018-12-04T07:24:40.993Z,51.63
2018-12-04T07:25:40.646Z,51.59
2018-12-04T07:26:40.695Z,51.58
2018-12-04T07:27:40.807Z,51.63
2018-12-04T07:28:41.042Z,51.6
2018-12-04T07:29:40.903Z,51.58
2018-12-04T07:30:41.188Z,51.56
2018-12-04T07:31:40.953Z,51.59
2018-12-04T07:32:40.719Z,51.57
2018-12-04T07:33:40.870Z,51.6
2018-12-04T07:34:40.793Z,51.58
2018-12-04T07:35:40.998Z,51.6
2018-12-04T07:36:40.893Z,51.6
2018-12-04T07:37:40.598Z,51.59
2018-12-04T07:38:40.890Z,51.61
2018-12-04T07:39:41.120Z,51.59
2018-12-04T07:40:40.736Z,51.6
2018-12-04T07:41:41.027Z,51.57
2018-12-04T07:42:40.951Z,51.57
2018-12-04T07:43:40.877Z,51.63
2018-12-04T07:44:40.543Z,51.62
2018-12-04T07:45:41.218Z,51.58
2018-12-04T07:46:40.957Z,51.61
2018-12-04T07:47:41.071Z,51.6
2018-12-04T07:48:40.761Z,51.6
2018-12-04T07:49:40.998Z,51.62
2018-12-04T07:50:41.085Z,51.58
2018-12-04T07:51:41.094Z,51.62
2018-12-04T07:52:40.715Z,51.63
2018-12-04T07:53:40.746Z,51.6
2018-12-04T07:54:40.706Z,51.59
2018-12-04T07:55:40.643Z,51.57
2018-12-04T07:56:40.593Z,51.58
2018-12-04T07:57:40.679Z,51.53
2018-12-04T07:58:41.066Z,51.53
2018-12-04T07:59:40.796Z,51.49
2018-12-04T08:00:40.757Z,51.51
2018-12-04T08:01:41.052Z,51.51
2018-12-04T08:02:40.742Z,51.51
2018-12-04T08:03:40.741Z,51.46
2018-12-04T08:04:41.303Z,51.59
2018-12-04T08:05:40.954Z,51.48
2018-12-04T08:06:40.750Z,51.48
2018-12-04T08:07:40.740Z,51.45
2018-12-04T08:08:40.755Z,51.47
2018-12-04T08:09:40.730Z,51.5
2018-12-04T08:10:40.725Z,51.46
2018-12-04T08:11:40.776Z,51.49
2018-12-04T08:12:41.045Z,51.52
2018-12-04T08:13:40.647Z,51.49
2018-12-04T08:14:41.119Z,51.54
2018-12-04T08:15:40.701Z,51.5
2018-12-04T08:16:40.531Z,51.5
2018-12-04T08:17:40.899Z,51.47
2018-12-04T08:18:40.441Z,51.52
2018-12-04T08:19:40.803Z,51.47
2018-12-04T08:20:40.861Z,51.48
2018-12-04T08:21:40.892Z,51.52
2018-12-04T08:22:40.516Z,51.46
2018-12-04T08:23:40.746Z,51.47
2018-12-04T08:24:40.752Z,51.46
2018-12-04T08:25:40.507Z,51.45
2018-12-04T08:26:41.230Z,51.54
2018-12-04T08:27:41.066Z,51.45
2018-12-04T08:28:41.451Z,51.47
2018-12-04T08:29:40.860Z,51.45
2018-12-04T08:30:40.767Z,51.45
2018-12-04T08:31:40.815Z,51.44
2018-12-04T08:32:40.681Z,51.44
2018-12-04T08:33:40.840Z,51.45
2018-12-04T08:34:40.795Z,51.49
2018-12-04T08:35:40.768Z,51.46
2018-12-04T08:36:40.762Z,51.43
2018-12-04T08:37:41.041Z,51.47
2018-12-04T08:38:41.433Z,51.4
2018-12-04T08:39:40.941Z,51.44
2018-12-04T08:40:40.474Z,51.47
2018-12-04T08:41:40.961Z,51.46
2018-12-04T08:42:41.095Z,51.47
2018-12-04T08:43:40.852Z,51.49
2018-12-04T08:44:41.651Z,51.45
2018-12-04T08:45:40.520Z,51.52
2018-12-04T08:46:41.173Z,51.42
2018-12-04T08:47:41.015Z,51.54
2018-12-04T08:48:40.713Z,51.5
2018-12-04T08:49:40.822Z,51.44
2018-12-04T08:50:40.886Z,51.43
2018-12-04T08:51:40.724Z,51.47
2018-12-04T08:52:40.823Z,51.42
2018-12-04T08:53:40.814Z,51.44
2018-12-04T08:54:40.960Z,51.42
2018-12-04T08:55:40.867Z,51.43
2018-12-04T08:56:40.726Z,51.42
2018-12-04T08:57:41.163Z,51.44
2018-12-04T08:58:40.436Z,51.44
2018-12-04T08:59:40.732Z,51.42
2018-12-04T09:00:40.984Z,51.44
2018-12-04T09:01:40.510Z,51.45
2018-12-04T09:02:40.717Z,51.45
2018-12-04T09:03:40.806Z,51.43
2018-12-04T09:04:40.563Z,51.45
2018-12-04T09:05:41.288Z,51.43
2018-12-04T09:06:41.011Z,51.45
2018-12-04T09:07:40.528Z,51.44
2018-12-04T09:08:41.109Z,51.47
2018-12-04T09:09:40.738Z,51.52
2018-12-04T09:10:40.933Z,51.44
2018-12-04T09:11:40.860Z,51.46
2018-12-04T09:12:40.507Z,51.45
2018-12-04T09:13:40.658Z,51.45
2018-12-04T09:14:40.572Z,51.46
2018-12-04T09:15:41.297Z,51.47
2018-12-04T09:16:40.560Z,51.47
2018-12-04T09:17:41.006Z,51.5
2018-12-04T09:18:41.737Z,51.45
2018-12-04T09:19:40.891Z,51.45
2018-12-04T09:20:41.423Z,51.48
2018-12-04T09:21:41.143Z,51.46
2018-12-04T09:22:40.866Z,51.44
2018-12-04T09:23:41.230Z,51.44
2018-12-04T09:24:41.343Z,51.48
2018-12-04T09:25:41.124Z,51.46
2018-12-04T09:26:41.173Z,51.51
2018-12-04T09:27:41.453Z,51.49
2018-12-04T09:28:41.153Z,51.46
2018-12-04T09:29:41.726Z,51.45
2018-12-04T09:30:41.037Z,51.51
2018-12-04T09:31:41.008Z,51.51
2018-12-04T09:32:40.837Z,51.48
2018-12-04T09:33:41.715Z,51.48
2018-12-04T09:34:40.532Z,51.49
2018-12-04T09:35:40.912Z,51.51
2018-12-04T09:36:40.809Z,51.47
2018-12-04T09:37:41.041Z,51.54
2018-12-04T09:38:40.998Z,51.53
2018-12-04T09:39:40.751Z,51.51
2018-12-04T09:40:40.885Z,51.43
2018-12-04T09:41:41.324Z,51.48
2018-12-04T09:42:40.907Z,51.49
2018-12-04T09:43:40.492Z,51.49
2018-12-04T09:44:40.784Z,51.47
2018-12-04T09:45:40.807Z,51.55
2018-12-04T09:46:40.732Z,51.49
2018-12-04T09:47:40.493Z,51.53
2018-12-04T09:48:40.728Z,51.48
2018-12-04T09:49:40.543Z,51.48
2018-12-04T09:50:40.845Z,51.51
2018-12-04T09:51:40.544Z,51.47
2018-12-04T09:52:40.535Z,51.47
2018-12-04T09:53:40.789Z,51.49
2018-12-04T09:54:40.799Z,51.5
2018-12-04T09:55:40.713Z,51.47
2018-12-04T09:56:40.852Z,51.49
2018-12-04T09:57:40.742Z,51.49
2018-12-04T09:58:40.466Z,51.48
2018-12-04T09:59:41.013Z,51.49
2018-12-04T10:00:40.711Z,51.46
2018-12-04T10:01:40.565Z,51.46
2018-12-04T10:02:40.792Z,51.49
2018-12-04T10:03:40.821Z,51.51
2018-12-04T10:04:40.958Z,51.54
2018-12-04T10:05:40.531Z,51.49
2018-12-04T10:06:40.853Z,51.46
2018-12-04T10:07:40.555Z,51.47
2018-12-04T10:08:40.879Z,51.49
2018-12-04T10:09:40.800Z,51.48
2018-12-04T10:10:40.574Z,51.47
2018-12-04T10:11:40.889Z,51.49
2018-12-04T10:12:40.830Z,51.49
2018-12-04T10:13:40.740Z,51.48
2018-12-04T10:14:40.579Z,51.51
2018-12-04T10:15:41.070Z,51.53
2018-12-04T10:16:43.561Z,51.47
2018-12-04T10:17:40.794Z,51.48
2018-12-04T10:18:41.260Z,51.49
2018-12-04T10:19:40.946Z,51.47
2018-12-04T10:20:40.711Z,51.47
2018-12-04T10:21:40.674Z,51.47
2018-12-04T10:22:40.888Z,51.46
2018-12-04T10:23:40.734Z,51.42
2018-12-04T10:24:40.676Z,51.47
2018-12-04T10:25:41.394Z,51.41
2018-12-04T10:26:40.824Z,51.53
2018-12-04T10:27:40.910Z,51.47
2018-12-04T10:28:41.550Z,51.47
2018-12-04T10:29:40.956Z,51.43
2018-12-04T10:30:40.860Z,51.48
2018-12-04T10:31:40.630Z,51.43
2018-12-04T10:32:40.771Z,51.48
2018-12-04T10:33:40.531Z,51.47
2018-12-04T10:34:41.076Z,51.64
2018-12-04T10:35:40.578Z,51.66
2018-12-04T10:36:40.730Z,51.81
2018-12-04T10:37:40.512Z,51.83
2018-12-04T10:38:40.593Z,51.76
2018-12-04T10:39:40.748Z,51.76
2018-12-04T10:40:40.522Z,51.83
2018-12-04T10:41:40.841Z,51.85
2018-12-04T10:42:40.515Z,51.74
2018-12-04T10:43:41.185Z,51.66
2018-12-04T10:44:40.792Z,51.64
2018-12-04T10:45:40.986Z,51.54
2018-12-04T10:46:41.185Z,51.52
2018-12-04T10:47:40.660Z,51.57
2018-12-04T10:48:40.989Z,51.54
2018-12-04T10:49:40.759Z,51.56
2018-12-04T10:50:41.048Z,51.52
2018-12-04T10:51:40.423Z,51.52
2018-12-04T10:52:41.209Z,51.48
2018-12-04T10:53:40.508Z,51.55
2018-12-04T10:54:41.062Z,51.47
2018-12-04T10:55:40.491Z,51.51
2018-12-04T10:56:40.850Z,51.51
2018-12-04T10:57:40.966Z,51.54
2018-12-04T10:58:40.617Z,51.5
2018-12-04T10:59:40.751Z,51.54
2018-12-04T11:00:41.045Z,51.49
2018-12-04T11:01:41.137Z,51.48
2018-12-04T11:02:40.892Z,51.47
2018-12-04T11:03:41.050Z,51.48
2018-12-04T11:04:40.808Z,51.47
2018-12-04T11:05:40.486Z,51.48
2018-12-04T11:06:40.759Z,51.45
2018-12-04T11:07:40.639Z,51.4
2018-12-04T11:08:40.637Z,51.46
2018-12-04T11:09:40.727Z,51.45
2018-12-04T11:10:40.604Z,51.48
2018-12-04T11:11:40.468Z,51.45
2018-12-04T11:12:40.992Z,51.45
2018-12-04T11:13:40.437Z,51.4
2018-12-04T11:14:40.449Z,51.39
2018-12-04T11:15:40.863Z,51.45
2018-12-04T11:16:40.601Z,51.45
2018-12-04T11:17:41.432Z,51.4
2018-12-04T11:18:40.913Z,51.44
2018-12-04T11:19:41.120Z,51.4
2018-12-04T11:20:40.879Z,51.43
2018-12-04T11:21:40.727Z,51.4
2018-12-04T11:22:40.466Z,51.39
2018-12-04T11:23:40.545Z,51.43
2018-12-04T11:24:41.133Z,51.43
2018-12-04T11:25:40.544Z,51.4
2018-12-04T11:26:40.867Z,51.42
2018-12-04T11:27:40.498Z,51.43
2018-12-04T11:28:41.377Z,51.41
2018-12-04T11:29:40.580Z,51.46
2018-12-04T11:30:40.794Z,51.43
2018-12-04T11:31:40.760Z,51.45
2018-12-04T11:32:41.024Z,51.42
2018-12-04T11:33:40.620Z,51.41
2018-12-04T11:34:40.817Z,51.42
2018-12-04T11:35:40.845Z,51.38
2018-12-04T11:36:40.909Z,51.43
2018-12-04T11:37:40.444Z,51.44
2018-12-04T11:38:41.097Z,51.4
2018-12-04T11:39:40.876Z,51.43
2018-12-04T11:40:41.046Z,51.49
2018-12-04T11:41:40.658Z,51.43
2018-12-04T11:42:40.791Z,51.4
2018-12-04T11:43:40.601Z,51.42
2018-12-04T11:44:40.843Z,51.47
2018-12-04T11:45:40.439Z,51.41
2018-12-04T11:46:40.892Z,51.41
2018-12-04T11:47:40.993Z,51.39
2018-12-04T11:48:40.944Z,51.38
2018-12-04T11:49:40.732Z,51.35
2018-12-04T11:50:41.254Z,51.39
2018-12-04T11:51:40.620Z,51.35
2018-12-04T11:52:40.564Z,51.4
2018-12-04T11:53:40.711Z,51.35
2018-12-04T11:54:40.417Z,51.38
2018-12-04T11:55:41.264Z,51.37
2018-12-04T11:56:40.923Z,51.35
2018-12-04T11:57:40.553Z,51.39
2018-12-04T11:58:41.086Z,51.36
2018-12-04T11:59:41.419Z,51.51
2018-12-04T12:00:40.716Z,51.38
2018-12-04T12:01:40.603Z,51.38
2018-12-04T12:02:40.518Z,51.35
2018-12-04T12:03:40.812Z,51.35
2018-12-04T12:04:40.977Z,51.4
2018-12-04T12:05:40.666Z,51.38
2018-12-04T12:06:40.872Z,51.33
2018-12-04T12:07:40.959Z,51.31
2018-12-04T12:08:40.869Z,51.32
2018-12-04T12:09:40.806Z,51.36
2018-12-04T12:10:40.919Z,51.35
2018-12-04T12:11:40.826Z,51.27
2018-12-04T12:12:41.155Z,51.29
2018-12-04T12:13:40.550Z,51.35
2018-12-04T12:14:40.712Z,51.29
2018-12-04T12:15:40.568Z,51.26
2018-12-04T12:16:40.524Z,51.27
2018-12-04T12:17:40.941Z,51.33
2018-12-04T12:18:40.414Z,51.31
2018-12-04T12:19:40.881Z,51.33
2018-12-04T12:20:41.291Z,51.3
2018-12-04T12:21:40.691Z,51.33
2018-12-04T12:22:40.755Z,51.31
2018-12-04T12:23:40.602Z,51.33
2018-12-04T12:24:40.877Z,51.31
2018-12-04T12:25:41.010Z,51.31
2018-12-04T12:26:40.580Z,51.29
2018-12-04T12:27:40.482Z,51.32
2018-12-04T12:28:40.707Z,51.31
2018-12-04T12:29:40.604Z,51.29
2018-12-04T12:30:40.755Z,51.35
2018-12-04T12:31:40.630Z,51.33
2018-12-04T12:32:40.587Z,51.33
2018-12-04T12:33:40.983Z,51.31
2018-12-04T12:34:40.756Z,51.29
2018-12-04T12:35:40.884Z,51.32
2018-12-04T12:36:40.527Z,51.39
2018-12-04T12:37:41.001Z,51.33
2018-12-04T12:38:40.369Z,51.35
2018-12-04T12:39:41.485Z,51.29
2018-12-04T12:40:40.816Z,51.33
2018-12-04T12:41:40.934Z,51.34
2018-12-04T12:42:40.492Z,51.31
2018-12-04T12:43:40.878Z,51.32
2018-12-04T12:44:41.151Z,51.32
2018-12-04T12:45:40.413Z,51.29
2018-12-04T12:46:40.583Z,51.26
2018-12-04T12:47:40.584Z,51.25
2018-12-04T12:48:40.888Z,51.27
2018-12-04T12:49:40.855Z,51.27
2018-12-04T12:50:40.986Z,51.29
2018-12-04T12:51:40.565Z,51.27
2018-12-04T12:52:40.572Z,51.31
2018-12-04T12:53:40.775Z,51.29
2018-12-04T12:54:41.105Z,51.31